Time;durP1;ratioP1;P1;durP2;ratioP2;P2;SDS_P1;SDS_P2;PMS_P1;PMS_P2;Temp;Humidity;BMP_temperature;BMP_pressure;BME280_temperature;BME280_humidity;BME280_pressure;Samples;Min_cycle;Max_cycle;Signal;HPM_P1;HPM_P2
2022/06/27 00:01:01;;;;;;;;;;;;;;;18.58;82.46;96235.56;5097027;28;19958;-74
2022/06/27 00:03:27;;;;;;;;;;;;;;;18.44;82.88;96245.19;5097180;28;19964;-73
2022/06/27 00:05:53;;;;;;;;;;;;;;;18.32;84.94;96265.94;5097011;28;19967;-73
2022/06/27 00:08:19;;;;;;;;;;;;;;;18.21;85.22;96297.06;5096756;28;20051;-73
2022/06/27 00:10:45;;;;;;;;;;;;;;;18.14;86.67;96337.16;5097332;28;19961;-72
2022/06/27 00:13:11;;;;;;;;;;;;;;;18.12;87.53;96395.00;5096935;28;20470;-73
2022/06/27 00:15:37;;;;;;;;;;;;;;;18.13;90.66;96440.91;5096629;28;20509;-72
2022/06/27 00:18:03;;;;;;;;;;;;;;;18.10;89.50;96457.34;5096782;28;20314;-72
2022/06/27 00:20:28;;;;;;;;;;;;;;;18.09;91.12;96458.44;5097043;28;20060;-73
2022/06/27 00:22:54;;;;;;;;;;;;;;;18.05;93.77;96466.13;5096680;28;20328;-73
2022/06/27 00:25:20;;;;;;;;;;;;;;;18.01;91.84;96465.84;5096588;28;20043;-73
2022/06/27 00:27:46;;;;;;;;;;;;;;;17.98;95.20;96471.69;5096194;28;19998;-73
2022/06/27 00:30:12;;;;;;;;;;;;;;;17.96;94.47;96480.97;5096139;28;20035;-73
2022/06/27 00:32:38;;;;;;;;;;;;;;;17.92;93.52;96451.50;5096533;28;20003;-73
2022/06/27 00:35:08;;;;;;;;;;;;;;;17.91;92.99;96412.78;5096719;28;19958;-73
2022/06/27 00:37:34;;;;;;;;;;;;;;;17.81;86.58;96256.25;5096300;28;19959;-73
2022/06/27 00:40:00;;;;;;;;;;;;;;;17.68;90.73;96179.88;5096424;28;19966;-72
2022/06/27 00:42:26;;;;;;;;;;;;;;;17.51;93.83;96238.50;5096397;28;19970;-73
2022/06/27 00:44:52;;;;;;;;;;;;;;;17.43;95.12;96356.50;5096512;28;19968;-73
2022/06/27 00:47:18;;;;;;;;;;;;;;;17.37;94.38;96293.94;5096143;28;20007;-73
2022/06/27 00:49:44;;;;;;;;;;;;;;;17.35;92.93;96288.09;5096284;28;20325;-73
2022/06/27 00:52:11;;;;;;;;;;;;;;;17.36;93.23;96284.38;5095863;28;19951;-73
2022/06/27 00:54:39;;;;;;;;;;;;;;;17.37;95.36;96278.03;5095937;28;19963;-73
2022/06/27 00:57:06;;;;;;;;;;;;;;;17.34;91.38;96246.75;5085829;28;20436;-73
2022/06/27 00:59:32;;;;;;;;;;;;;;;17.31;89.86;96248.06;5095857;28;20334;-73
2022/06/27 01:01:58;;;;;;;;;;;;;;;17.27;89.56;96232.97;5095963;28;19953;-73
2022/06/27 01:04:24;;;;;;;;;;;;;;;17.23;90.61;96238.78;5095885;28;19959;-74
2022/06/27 01:06:53;;;;;;;;;;;;;;;17.21;92.45;96234.81;5095217;28;20050;-73
2022/06/27 01:09:20;;;;;;;;;;;;;;;17.16;91.60;96218.94;5095790;28;20030;-73
2022/06/27 01:11:46;;;;;;;;;;;;;;;17.12;94.13;96229.25;5095818;28;20411;-73
2022/06/27 01:14:12;;;;;;;;;;;;;;;17.08;89.11;96212.31;5095594;28;19991;-74
2022/06/27 01:16:39;;;;;;;;;;;;;;;17.06;92.06;96200.38;5095811;28;20353;-73
2022/06/27 01:19:08;;;;;;;;;;;;;;;17.02;93.39;96194.81;5095504;28;19957;-74
2022/06/27 01:21:39;;;;;;;;;;;;;;;17.00;94.02;96197.72;5095364;28;20413;-73
2022/06/27 01:24:04;;;;;;;;;;;;;;;17.02;95.73;96200.13;5095518;28;19961;-73
2022/06/27 01:26:30;;;;;;;;;;;;;;;17.04;95.59;96216.53;5095259;28;20329;-73
2022/06/27 01:28:56;;;;;;;;;;;;;;;17.08;93.33;96233.50;5095294;28;19980;-73
2022/06/27 01:31:22;;;;;;;;;;;;;;;17.13;96.59;96252.03;5095747;28;20335;-73
2022/06/27 01:33:48;;;;;;;;;;;;;;;17.16;94.77;96256.81;5095292;28;19968;-74
2022/06/27 01:38:59;;;;;;;;;;;;;;;17.20;93.17;96255.22;5095260;28;19960;-74
2022/06/27 01:41:25;;;;;;;;;;;;;;;17.19;94.25;96279.34;5094008;28;20437;-74
2022/06/27 01:43:51;;;;;;;;;;;;;;;17.23;94.51;96297.09;5095043;28;19965;-73
2022/06/27 01:46:17;;;;;;;;;;;;;;;17.28;94.48;96295.50;5095058;28;19963;-74
2022/06/27 01:48:43;;;;;;;;;;;;;;;17.33;93.78;96308.78;5094960;28;20316;-73
2022/06/27 01:51:09;;;;;;;;;;;;;;;17.37;93.44;96315.16;5094805;28;20001;-74
2022/06/27 01:53:35;;;;;;;;;;;;;;;17.37;91.36;96276.19;5094849;28;19956;-73
2022/06/27 01:56:01;;;;;;;;;;;;;;;17.30;92.98;96274.84;5094869;28;20423;-73
2022/06/27 01:58:27;;;;;;;;;;;;;;;17.31;94.02;96293.13;5094382;28;19977;-73
2022/06/27 02:00:54;;;;;;;;;;;;;;;17.34;93.23;96292.59;5094709;28;19954;-73
2022/06/27 02:03:19;;;;;;;;;;;;;;;17.37;92.59;96294.72;5094667;28;19963;-73
2022/06/27 02:05:45;;;;;;;;;;;;;;;17.41;91.61;96302.97;5095016;28;20011;-74
2022/06/27 02:08:13;;;;;;;;;;;;;;;17.43;92.17;96312.22;5094506;28;19963;-73
2022/06/27 02:10:39;;;;;;;;;;;;;;;17.44;92.59;96313.81;5094526;28;19978;-74
2022/06/27 02:13:04;;;;;;;;;;;;;;;17.37;92.34;96305.34;5094373;28;19958;-73
2022/06/27 02:15:31;;;;;;;;;;;;;;;17.37;92.60;96315.94;5094817;28;20062;-73
2022/06/27 02:17:57;;;;;;;;;;;;;;;17.38;92.98;96317.50;5094240;28;19968;-73
2022/06/27 02:20:23;;;;;;;;;;;;;;;17.40;92.70;96314.59;5093712;28;20362;-73
2022/06/27 02:22:49;;;;;;;;;;;;;;;17.44;92.40;96294.47;5094138;28;19964;-73
2022/06/27 02:25:15;;;;;;;;;;;;;;;17.45;92.77;96302.16;5094307;28;19966;-73
2022/06/27 02:27:41;;;;;;;;;;;;;;;17.46;92.80;96289.69;5094242;28;19963;-73
2022/06/27 02:30:08;;;;;;;;;;;;;;;17.49;93.80;96283.06;5094157;28;19984;-73
2022/06/27 02:32:34;;;;;;;;;;;;;;;17.49;92.61;96273.25;5094923;28;20334;-73
2022/06/27 02:35:00;;;;;;;;;;;;;;;17.49;92.40;96269.81;5093988;28;20327;-73
2022/06/27 02:37:27;;;;;;;;;;;;;;;17.45;91.83;96274.84;5093284;28;19962;-73
2022/06/27 02:39:54;;;;;;;;;;;;;;;17.43;92.31;96264.50;5093951;28;19976;-73
2022/06/27 02:42:21;;;;;;;;;;;;;;;17.43;93.05;96261.88;5093912;28;19972;-74
2022/06/27 02:44:50;;;;;;;;;;;;;;;17.45;93.01;96264.25;5094421;28;19987;-74
2022/06/27 02:47:20;;;;;;;;;;;;;;;17.45;92.85;96258.94;5093883;28;19961;-73
2022/06/27 02:49:46;;;;;;;;;;;;;;;17.46;92.95;96268.47;5094001;28;19976;-73
2022/06/27 02:52:30;;;;;;;;;;;;;;;17.46;92.97;96279.09;5093609;28;19969;-73
2022/06/27 02:55:04;;;;;;;;;;;;;;;17.46;93.12;96271.13;5093823;28;19958;-73
2022/06/27 02:57:36;;;;;;;;;;;;;;;17.48;94.03;96274.31;5083612;28;19966;-73
2022/06/27 03:00:03;;;;;;;;;;;;;;;17.49;93.69;96264.50;5083015;28;19972;-73
2022/06/27 03:02:30;;;;;;;;;;;;;;;17.50;94.04;96266.88;5093796;28;19977;-73
2022/06/27 03:04:57;;;;;;;;;;;;;;;17.50;93.89;96269.53;5093926;28;19964;-73
2022/06/27 03:07:23;;;;;;;;;;;;;;;17.53;94.15;96276.16;5093529;28;20340;-73
2022/06/27 03:09:48;;;;;;;;;;;;;;;17.48;93.20;96266.34;5093558;28;19982;-74
2022/06/27 03:12:15;;;;;;;;;;;;;;;17.40;94.63;96282.78;5093784;28;19999;-74
2022/06/27 03:14:51;;;;;;;;;;;;;;;17.34;95.00;96289.16;5093731;28;19990;-74
2022/06/27 03:17:17;;;;;;;;;;;;;;;17.30;96.52;96310.06;5093732;28;19975;-73
2022/06/27 03:19:43;;;;;;;;;;;;;;;17.30;98.22;96306.66;5092399;28;20047;-73
2022/06/27 03:22:10;;;;;;;;;;;;;;;17.29;97.96;96291.81;5093539;28;19960;-73
2022/06/27 03:24:36;;;;;;;;;;;;;;;17.28;97.10;96293.66;5093627;28;20300;-73
2022/06/27 03:27:02;;;;;;;;;;;;;;;17.28;98.63;96314.84;5093950;28;19974;-73
2022/06/27 03:29:28;;;;;;;;;;;;;;;17.30;98.35;96309.28;5093470;28;20073;-73
2022/06/27 03:31:54;;;;;;;;;;;;;;;17.30;98.86;96298.69;5093539;28;19960;-73
2022/06/27 03:34:20;;;;;;;;;;;;;;;17.21;100.00;96283.31;5093491;28;20413;-73
2022/06/27 03:36:46;;;;;;;;;;;;;;;17.13;100.00;96264.50;5092008;28;19963;-73
2022/06/27 03:39:11;;;;;;;;;;;;;;;17.09;100.00;96231.63;5093512;28;19964;-72
2022/06/27 03:41:39;;;;;;;;;;;;;;;17.07;100.00;96226.59;5093273;28;20409;-72
2022/06/27 03:44:08;;;;;;;;;;;;;;;17.10;98.44;96220.00;5093599;28;20426;-72
2022/06/27 03:46:35;;;;;;;;;;;;;;;17.09;99.70;96236.94;5093162;28;19982;-72
2022/06/27 03:51:45;;;;;;;;;;;;;;;17.17;99.75;96279.59;5093786;28;20330;-73
2022/06/27 03:54:11;;;;;;;;;;;;;;;17.21;99.93;96311.66;5093295;28;19957;-73
2022/06/27 03:56:37;;;;;;;;;;;;;;;17.25;100.00;96316.19;5093408;28;20003;-73
2022/06/27 03:59:03;;;;;;;;;;;;;;;17.24;100.00;96285.44;5093281;28;19999;-73
2022/06/27 04:01:29;;;;;;;;;;;;;;;17.25;100.00;96271.13;5093076;28;20043;-74
2022/06/27 04:03:55;;;;;;;;;;;;;;;17.18;99.72;96254.69;5093797;28;20017;-73
2022/06/27 04:06:21;;;;;;;;;;;;;;;17.12;100.00;96269.00;5097183;28;20049;-73
2022/06/27 04:08:46;;;;;;;;;;;;;;;17.13;100.00;96252.03;5097096;28;19961;-73
2022/06/27 04:11:12;;;;;;;;;;;;;;;17.18;100.00;96248.63;5096793;28;20383;-73
2022/06/27 04:13:38;;;;;;;;;;;;;;;17.18;100.00;96260.00;5096869;28;19968;-74
2022/06/27 04:16:04;;;;;;;;;;;;;;;17.18;100.00;96252.06;5096994;28;20357;-74
2022/06/27 04:18:30;;;;;;;;;;;;;;;17.13;100.00;96241.44;5096626;28;19965;-75
2022/06/27 04:20:56;;;;;;;;;;;;;;;17.12;100.00;96231.13;5097040;28;19957;-73
2022/06/27 04:23:22;;;;;;;;;;;;;;;17.14;100.00;96221.84;5095753;28;20412;-73
2022/06/27 04:25:48;;;;;;;;;;;;;;;17.14;100.00;96215.75;5097007;28;20484;-73
2022/06/27 04:28:14;;;;;;;;;;;;;;;17.19;100.00;96216.53;5096553;28;20317;-73
2022/06/27 04:30:40;;;;;;;;;;;;;;;17.22;100.00;96200.13;5096573;28;19976;-74
2022/06/27 04:33:10;;;;;;;;;;;;;;;17.20;100.00;96204.09;5096248;28;20435;-73
2022/06/27 04:35:36;;;;;;;;;;;;;;;17.20;100.00;96199.59;5096508;28;19966;-73
2022/06/27 04:38:02;;;;;;;;;;;;;;;17.24;100.00;96210.47;5096464;28;19962;-73
2022/06/27 04:40:29;;;;;;;;;;;;;;;17.29;100.00;96218.41;5096154;28;20402;-74
2022/06/27 04:42:56;;;;;;;;;;;;;;;17.36;100.00;96215.47;5096317;28;19954;-73
2022/06/27 04:45:23;;;;;;;;;;;;;;;17.45;100.00;96216.53;5096324;28;19965;-73
2022/06/27 04:47:49;;;;;;;;;;;;;;;17.49;100.00;96220.25;5095931;28;20322;-73
2022/06/27 04:50:22;;;;;;;;;;;;;;;17.61;100.00;96223.38;5095935;28;20321;-73
2022/06/27 04:52:49;;;;;;;;;;;;;;;17.67;99.85;96234.78;5096028;28;19962;-74
2022/06/27 04:55:15;;;;;;;;;;;;;;;17.69;100.00;96231.88;5096323;28;19967;-74
2022/06/27 04:57:42;;;;;;;;;;;;;;;17.69;98.82;96227.34;5095040;28;20331;-73
2022/06/27 05:00:12;;;;;;;;;;;;;;;17.71;98.41;96227.09;5095801;28;19952;-74
2022/06/27 05:02:38;;;;;;;;;;;;;;;17.78;99.64;96228.38;5095959;28;19964;-73
2022/06/27 05:05:04;;;;;;;;;;;;;;;17.82;96.54;96232.13;5095727;28;20023;-73
2022/06/27 05:07:30;;;;;;;;;;;;;;;17.80;97.00;96231.56;5095842;28;20075;-74
2022/06/27 05:09:57;;;;;;;;;;;;;;;17.78;98.88;96240.84;5095561;28;19976;-73
2022/06/27 05:12:24;;;;;;;;;;;;;;;17.75;98.24;96234.25;5095986;28;19970;-74
2022/06/27 05:14:54;;;;;;;;;;;;;;;17.75;98.59;96247.50;5095707;28;19984;-74
2022/06/27 05:17:20;;;;;;;;;;;;;;;17.71;99.18;96254.41;5088016;28;19961;-74
2022/06/27 05:19:47;;;;;;;;;;;;;;;17.67;98.73;96253.34;5095580;28;19966;-73
2022/06/27 05:22:13;;;;;;;;;;;;;;;17.62;100.00;96253.38;5095572;28;19962;-73
2022/06/27 05:24:39;;;;;;;;;;;;;;;17.56;100.00;96265.81;5095714;28;20401;-73
2022/06/27 05:27:05;;;;;;;;;;;;;;;17.60;100.00;96263.44;5095472;28;20406;-73
2022/06/27 05:29:32;;;;;;;;;;;;;;;17.63;100.00;96268.19;5095271;28;19966;-73
2022/06/27 05:31:59;;;;;;;;;;;;;;;17.64;100.00;96272.47;5095520;28;19971;-73
2022/06/27 05:34:25;;;;;;;;;;;;;;;17.65;100.00;96279.34;5094997;28;19959;-73
2022/06/27 05:36:50;;;;;;;;;;;;;;;17.69;100.00;96282.25;5095253;28;19957;-73
2022/06/27 05:39:17;;;;;;;;;;;;;;;17.73;99.60;96297.38;5095069;28;19963;-73
2022/06/27 05:41:45;;;;;;;;;;;;;;;17.79;100.00;96303.47;5095083;28;19959;-73
2022/06/27 05:44:13;;;;;;;;;;;;;;;17.87;99.46;96326.03;5095725;28;19962;-73
2022/06/27 05:46:40;;;;;;;;;;;;;;;17.97;99.65;96334.75;5095059;28;19979;-75
2022/06/27 05:49:08;;;;;;;;;;;;;;;18.04;99.19;96353.09;5095059;28;19963;-73
2022/06/27 05:51:35;;;;;;;;;;;;;;;18.09;98.94;96354.94;5095050;28;19981;-74
2022/06/27 05:54:02;;;;;;;;;;;;;;;18.12;98.30;96354.38;5094973;28;20345;-73
2022/06/27 05:56:29;;;;;;;;;;;;;;;18.11;99.24;96345.63;5095315;28;19962;-73
2022/06/27 05:58:55;;;;;;;;;;;;;;;18.15;99.02;96349.34;5094713;28;19962;-73
2022/06/27 06:01:25;;;;;;;;;;;;;;;18.24;98.20;96370.81;5095228;28;19959;-73
2022/06/27 06:03:52;;;;;;;;;;;;;;;18.28;98.32;96369.22;5094780;28;20352;-73
2022/06/27 06:06:18;;;;;;;;;;;;;;;18.30;98.24;96359.13;5094771;28;19958;-73
2022/06/27 06:08:45;;;;;;;;;;;;;;;18.39;98.78;96336.25;5094419;28;19977;-73
2022/06/27 06:11:13;;;;;;;;;;;;;;;18.49;97.71;96335.44;5095376;28;20361;-73
2022/06/27 06:13:39;;;;;;;;;;;;;;;18.57;94.75;96329.56;5094933;28;19996;-73
2022/06/27 06:16:06;;;;;;;;;;;;;;;18.72;95.16;96339.34;5094490;28;20380;-73
2022/06/27 06:18:33;;;;;;;;;;;;;;;18.84;94.79;96336.41;5094796;28;19979;-73
2022/06/27 06:20:59;;;;;;;;;;;;;;;18.84;93.92;96339.84;5094693;28;19964;-73
2022/06/27 06:23:26;;;;;;;;;;;;;;;18.84;92.84;96331.88;5094367;28;20407;-73
2022/06/27 06:25:52;;;;;;;;;;;;;;;18.87;93.53;96338.50;5078165;28;19952;-73
2022/06/27 06:28:18;;;;;;;;;;;;;;;18.94;94.73;96338.19;5094445;28;20431;-73
2022/06/27 06:30:44;;;;;;;;;;;;;;;19.06;94.81;96336.78;5094442;28;19977;-73
2022/06/27 06:33:11;;;;;;;;;;;;;;;19.28;93.32;96330.31;5094297;28;19953;-73
2022/06/27 06:35:37;;;;;;;;;;;;;;;19.62;91.83;96338.28;5094168;28;20337;-74
2022/06/27 06:38:03;;;;;;;;;;;;;;;19.93;90.23;96350.56;5094120;28;19955;-74
2022/06/27 06:40:29;;;;;;;;;;;;;;;20.03;88.15;96340.66;5094165;28;19972;-73
2022/06/27 06:42:56;;;;;;;;;;;;;;;19.99;87.46;96342.28;5093819;28;20297;-74
2022/06/27 06:45:23;;;;;;;;;;;;;;;20.06;88.72;96357.91;5094135;28;19974;-73
2022/06/27 06:47:49;;;;;;;;;;;;;;;20.21;87.63;96359.63;5093854;28;19965;-73
2022/06/27 06:50:18;;;;;;;;;;;;;;;20.27;86.42;96366.50;5093812;28;20346;-74
2022/06/27 06:52:46;;;;;;;;;;;;;;;20.30;86.05;96359.81;5093707;28;20437;-73
2022/06/27 06:55:16;;;;;;;;;;;;;;;20.33;84.33;96359.25;5093999;28;19971;-73
2022/06/27 06:57:42;;;;;;;;;;;;;;;20.25;85.42;96363.31;5094562;28;19966;-73
2022/06/27 07:00:09;;;;;;;;;;;;;;;20.13;85.35;96365.56;5093730;28;20358;-73
2022/06/27 07:02:35;;;;;;;;;;;;;;;20.04;85.68;96347.53;5093875;28;19973;-73
2022/06/27 07:05:03;;;;;;;;;;;;;;;20.30;85.91;96343.84;5092476;28;19967;-73
2022/06/27 07:07:32;;;;;;;;;;;;;;;20.57;85.57;96336.06;5093794;28;20335;-73
2022/06/27 07:09:59;;;;;;;;;;;;;;;20.62;84.27;96332.56;5093781;28;20045;-73
2022/06/27 07:12:26;;;;;;;;;;;;;;;20.81;83.99;96340.59;5094266;28;19964;-73
2022/06/27 07:14:54;;;;;;;;;;;;;;;21.04;82.68;96345.13;5093686;28;19994;-73
2022/06/27 07:17:24;;;;;;;;;;;;;;;21.18;81.08;96360.41;5093681;28;20408;-73
2022/06/27 07:19:52;;;;;;;;;;;;;;;21.36;79.88;96354.28;5093625;28;19976;-73
2022/06/27 07:22:19;;;;;;;;;;;;;;;21.35;78.36;96362.56;5093574;28;19977;-73
2022/06/27 07:24:48;;;;;;;;;;;;;;;21.27;76.54;96370.13;5080716;28;19959;-73
2022/06/27 07:27:16;;;;;;;;;;;;;;;21.08;79.07;96380.78;5093581;28;19966;-73
2022/06/27 07:29:42;;;;;;;;;;;;;;;20.96;80.24;96382.28;5093531;28;20416;-73
2022/06/27 07:32:08;;;;;;;;;;;;;;;20.87;81.36;96380.25;5093559;28;19975;-73
2022/06/27 07:34:35;;;;;;;;;;;;;;;20.78;82.69;96384.63;5093335;28;20434;-73
2022/06/27 07:37:01;;;;;;;;;;;;;;;20.74;84.03;96396.91;5093754;28;19967;-73
2022/06/27 07:39:27;;;;;;;;;;;;;;;20.70;82.06;96406.56;5096067;28;20443;-74
2022/06/27 07:41:54;;;;;;;;;;;;;;;20.80;83.28;96421.66;5097653;28;19969;-73
2022/06/27 07:44:24;;;;;;;;;;;;;;;21.06;83.39;96409.63;5097701;28;20332;-74
2022/06/27 07:46:50;;;;;;;;;;;;;;;21.12;81.60;96417.53;5097553;28;19978;-73
2022/06/27 07:49:16;;;;;;;;;;;;;;;21.21;80.01;96431.84;5097267;28;19964;-74
2022/06/27 07:51:42;;;;;;;;;;;;;;;21.25;78.20;96441.66;5097524;28;20053;-73
2022/06/27 07:54:10;;;;;;;;;;;;;;;21.31;79.95;96437.03;5096677;28;19960;-73
2022/06/27 07:56:37;;;;;;;;;;;;;;;21.36;78.53;96423.63;5097642;28;19953;-73
2022/06/27 07:59:05;;;;;;;;;;;;;;;21.48;76.78;96418.69;5097184;28;19962;-74
2022/06/27 08:01:31;;;;;;;;;;;;;;;21.73;73.19;96400.69;5096997;28;20497;-73
2022/06/27 08:03:57;;;;;;;;;;;;;;;21.68;78.01;96424.81;5097281;28;19976;-73
2022/06/27 08:06:27;;;;;;;;;;;;;;;21.70;78.46;96430.66;5096757;28;20013;-73
2022/06/27 08:08:54;;;;;;;;;;;;;;;21.76;79.05;96426.03;5097210;28;19969;-73
2022/06/27 08:11:25;;;;;;;;;;;;;;;22.03;76.39;96420.00;5096990;28;19972;-73
2022/06/27 08:13:52;;;;;;;;;;;;;;;22.30;78.32;96424.66;5096474;28;19963;-73
2022/06/27 08:16:20;;;;;;;;;;;;;;;22.44;75.37;96419.34;5097043;28;19970;-73
2022/06/27 08:18:47;;;;;;;;;;;;;;;22.54;75.58;96429.06;5096887;28;19961;-73
2022/06/27 08:21:14;;;;;;;;;;;;;;;22.65;76.20;96427.78;5096970;28;19964;-73
2022/06/27 08:23:40;;;;;;;;;;;;;;;22.71;75.06;96429.28;5096680;28;20435;-73
2022/06/27 08:26:07;;;;;;;;;;;;;;;22.64;74.21;96442.25;5097009;28;20336;-73
2022/06/27 08:28:35;;;;;;;;;;;;;;;22.50;73.57;96431.53;5096611;28;19956;-73
2022/06/27 08:31:02;;;;;;;;;;;;;;;22.34;74.98;96447.00;5096371;28;19980;-73
2022/06/27 08:33:29;;;;;;;;;;;;;;;22.20;74.99;96449.63;5096955;28;19984;-73
2022/06/27 08:35:56;;;;;;;;;;;;;;;22.03;75.38;96457.41;5096593;28;19966;-73
2022/06/27 08:38:22;;;;;;;;;;;;;;;21.87;72.85;96443.47;5096595;28;19964;-73
2022/06/27 08:40:50;;;;;;;;;;;;;;;21.76;75.20;96448.19;5096383;28;19965;-73
2022/06/27 08:43:17;;;;;;;;;;;;;;;21.73;74.97;96451.41;5096034;28;19960;-73
2022/06/27 08:45:45;;;;;;;;;;;;;;;21.72;75.92;96444.50;5096384;28;19980;-73
2022/06/27 08:48:11;;;;;;;;;;;;;;;21.72;76.35;96446.38;5096136;28;20300;-73
2022/06/27 08:50:37;;;;;;;;;;;;;;;21.72;77.23;96455.19;5095750;28;19981;-72
2022/06/27 08:53:04;;;;;;;;;;;;;;;21.77;76.37;96460.44;5096110;28;20024;-73
2022/06/27 08:55:31;;;;;;;;;;;;;;;21.82;77.37;96464.94;5095990;28;19970;-73
2022/06/27 08:58:03;;;;;;;;;;;;;;;21.86;76.54;96466.72;5095857;28;19974;-73
2022/06/27 09:00:30;;;;;;;;;;;;;;;21.87;76.16;96470.19;5096374;28;19975;-73
2022/06/27 09:02:56;;;;;;;;;;;;;;;21.86;76.63;96481.97;5095833;28;19963;-73
2022/06/27 09:05:26;;;;;;;;;;;;;;;21.80;76.92;96478.56;5095787;28;19973;-73
2022/06/27 09:07:56;;;;;;;;;;;;;;;21.68;76.92;96475.53;5096018;28;19964;-72
2022/06/27 09:10:27;;;;;;;;;;;;;;;21.57;75.97;96464.19;5095650;28;19968;-73
2022/06/27 09:12:57;;;;;;;;;;;;;;;21.52;78.22;96463.47;5095692;28;20325;-73
2022/06/27 09:15:25;;;;;;;;;;;;;;;21.47;78.13;96459.78;5080353;28;19988;-73
2022/06/27 09:18:05;;;;;;;;;;;;;;;21.45;77.58;96448.59;5095575;28;19975;-72
2022/06/27 09:20:51;;;;;;;;;;;;;;;21.48;77.77;96455.22;5084265;28;20401;-72
2022/06/27 09:23:38;;;;;;;;;;;;;;;21.54;77.89;96450.63;5088025;28;20344;-72
2022/06/27 09:26:10;;;;;;;;;;;;;;;21.57;77.61;96453.53;5095721;28;19972;-71
2022/06/27 09:29:12;;;;;;;;;;;;;;;21.62;76.92;96448.09;5072020;28;19961;-71
2022/06/27 09:31:39;;;;;;;;;;;;;;;21.69;75.14;96445.88;5095449;28;19983;-71
2022/06/27 09:34:05;;;;;;;;;;;;;;;21.77;77.00;96457.75;5095278;28;19966;-71
2022/06/27 09:36:32;;;;;;;;;;;;;;;21.89;75.62;96454.66;5095360;28;19964;-71
2022/06/27 09:38:59;;;;;;;;;;;;;;;21.95;75.18;96463.41;5095250;28;19965;-72
2022/06/27 09:41:30;;;;;;;;;;;;;;;22.01;75.71;96467.59;5095383;28;20328;-71
2022/06/27 09:44:06;;;;;;;;;;;;;;;22.01;74.28;96471.03;5095423;28;20328;-71
2022/06/27 09:46:35;;;;;;;;;;;;;;;22.03;72.77;96462.75;5095506;28;20439;-71
2022/06/27 09:49:03;;;;;;;;;;;;;;;22.04;73.72;96473.13;5094946;28;19959;-72
2022/06/27 09:51:30;;;;;;;;;;;;;;;22.07;75.22;96485.13;5084012;28;20457;-72
2022/06/27 09:54:00;;;;;;;;;;;;;;;22.19;76.60;96488.09;5095133;28;20323;-72
2022/06/27 09:56:27;;;;;;;;;;;;;;;22.25;72.77;96486.97;5095046;28;20420;-71
2022/06/27 09:58:53;;;;;;;;;;;;;;;22.25;74.50;96502.22;5095004;28;19949;-71
2022/06/27 10:01:20;;;;;;;;;;;;;;;22.22;74.72;96503.56;5093972;28;19977;-71
2022/06/27 10:03:46;;;;;;;;;;;;;;;22.20;74.29;96512.97;5095115;28;19968;-71
2022/06/27 10:06:12;;;;;;;;;;;;;;;22.18;72.95;96523.16;5094782;28;20369;-72
2022/06/27 10:08:46;;;;;;;;;;;;;;;22.18;74.26;96529.28;5094753;28;19996;-72
2022/06/27 10:11:12;;;;;;;;;;;;;;;22.21;74.39;96534.03;5094572;28;20004;-72
2022/06/27 10:13:39;;;;;;;;;;;;;;;22.26;72.13;96530.53;5094532;28;19973;-72
2022/06/27 10:16:10;;;;;;;;;;;;;;;22.33;74.16;96548.84;5094550;28;19961;-72
2022/06/27 10:18:52;;;;;;;;;;;;;;;22.35;73.16;96544.03;5093498;28;19980;-72
2022/06/27 10:21:23;;;;;;;;;;;;;;;22.32;73.96;96558.72;5094508;28;19966;-72
2022/06/27 10:24:09;;;;;;;;;;;;;;;22.24;72.78;96560.19;5094711;28;19962;-72
2022/06/27 10:26:40;;;;;;;;;;;;;;;22.14;72.87;96564.88;5094495;28;19956;-73
2022/06/27 10:29:42;;;;;;;;;;;;;;;22.04;74.16;96561.25;5093267;28;20426;-72
2022/06/27 10:32:28;;;;;;;;;;;;;;;21.90;74.21;96573.72;5082798;28;20338;-71
2022/06/27 10:34:53;;;;;;;;;;;;;;;21.87;72.70;96567.09;5094275;28;20311;-72
2022/06/27 10:37:25;;;;;;;;;;;;;;;21.96;75.33;96567.22;5094044;28;19968;-73
2022/06/27 10:40:15;;;;;;;;;;;;;;;22.10;74.93;96562.75;5094078;28;19950;-72
2022/06/27 10:42:47;;;;;;;;;;;;;;;22.39;74.16;96572.53;5094264;28;19967;-72
2022/06/27 10:45:19;;;;;;;;;;;;;;;22.53;74.25;96561.09;5083522;28;20354;-73
2022/06/27 10:47:49;;;;;;;;;;;;;;;22.57;71.41;96551.41;5094352;28;19984;-72
2022/06/27 10:50:16;;;;;;;;;;;;;;;22.60;70.86;96548.16;5094047;28;19968;-72
2022/06/27 10:52:41;;;;;;;;;;;;;;;22.74;68.50;96540.16;5094275;28;20341;-72
2022/06/27 10:55:24;;;;;;;;;;;;;;;22.87;69.64;96558.13;5093947;28;20036;-72
2022/06/27 10:57:51;;;;;;;;;;;;;;;22.91;69.16;96556.47;5094052;28;20010;-72
2022/06/27 11:00:52;;;;;;;;;;;;;;;22.92;67.21;96549.22;5093953;28;19956;-72
2022/06/27 11:03:26;;;;;;;;;;;;;;;22.97;67.71;96551.78;5071538;28;20322;-72
2022/06/27 11:06:03;;;;;;;;;;;;;;;22.99;68.68;96571.00;5089964;28;20298;-72
2022/06/27 11:08:31;;;;;;;;;;;;;;;23.01;67.92;96560.84;5093622;28;19977;-72
2022/06/27 11:10:58;;;;;;;;;;;;;;;22.99;68.77;96571.81;5093690;28;19977;-72
2022/06/27 11:13:34;;;;;;;;;;;;;;;22.98;68.16;96567.56;5093184;28;19970;-72
2022/06/27 11:16:00;;;;;;;;;;;;;;;23.02;68.17;96565.13;5093733;28;20346;-72
2022/06/27 11:18:26;;;;;;;;;;;;;;;23.10;69.08;96572.47;5093543;28;19994;-72
2022/06/27 11:20:56;;;;;;;;;;;;;;;23.09;66.56;96549.47;5093455;28;19973;-73
2022/06/27 11:23:22;;;;;;;;;;;;;;;23.10;67.87;96564.44;5093623;28;19968;-72
2022/06/27 11:25:55;;;;;;;;;;;;;;;23.09;66.65;96560.16;5093582;28;19960;-72
2022/06/27 11:33:49;;;;;;;;;;;;;;;22.93;68.05;96577.53;5093679;28;19964;-72
2022/06/27 11:36:15;;;;;;;;;;;;;;;22.89;69.34;96583.50;5093503;28;20017;-72
2022/06/27 11:38:45;;;;;;;;;;;;;;;22.78;68.80;96583.94;5093338;28;20306;-72
2022/06/27 11:41:12;;;;;;;;;;;;;;;22.65;68.48;96574.78;5093456;28;20020;-73
2022/06/27 11:43:45;;;;;;;;;;;;;;;22.51;68.07;96574.78;5084629;28;19970;-72
2022/06/27 11:46:24;;;;;;;;;;;;;;;22.38;69.95;96588.84;5093296;28;20331;-73
2022/06/27 11:49:03;;;;;;;;;;;;;;;22.23;69.76;96579.97;5093375;28;19959;-72
2022/06/27 11:51:31;;;;;;;;;;;;;;;22.09;70.63;96601.25;5081730;28;19978;-72
2022/06/27 11:54:02;;;;;;;;;;;;;;;21.99;69.49;96592.59;5092962;28;19955;-72
2022/06/27 11:56:31;;;;;;;;;;;;;;;21.88;71.14;96594.56;5093437;28;19960;-73
2022/06/27 11:58:57;;;;;;;;;;;;;;;21.83;70.68;96606.09;5093203;28;19953;-72
2022/06/27 12:01:24;;;;;;;;;;;;;;;21.79;72.00;96614.97;5093066;28;19960;-72
2022/06/27 12:04:08;;;;;;;;;;;;;;;21.71;70.38;96605.72;5093549;28;19960;-72
2022/06/27 12:06:40;;;;;;;;;;;;;;;21.61;69.55;96600.53;5093218;28;19954;-72
2022/06/27 12:09:07;;;;;;;;;;;;;;;21.59;70.59;96608.03;5093006;28;20340;-72
2022/06/27 12:11:34;;;;;;;;;;;;;;;21.60;69.62;96609.59;5093690;28;19978;-72
2022/06/27 12:14:00;;;;;;;;;;;;;;;21.55;68.72;96602.44;5092864;28;19970;-72
2022/06/27 12:16:26;;;;;;;;;;;;;;;21.49;70.59;96615.03;5093184;28;20381;-72
2022/06/27 12:18:52;;;;;;;;;;;;;;;21.46;69.91;96610.28;5092963;28;19963;-72
2022/06/27 12:21:18;;;;;;;;;;;;;;;21.54;70.48;96610.72;5093038;28;20025;-72
2022/06/27 12:23:44;;;;;;;;;;;;;;;21.61;69.53;96603.97;5092682;28;19969;-72
2022/06/27 12:26:10;;;;;;;;;;;;;;;21.68;69.49;96604.44;5096454;28;19970;-72
2022/06/27 12:28:36;;;;;;;;;;;;;;;21.75;67.70;96581.94;5096827;28;19965;-72
2022/06/27 12:31:02;;;;;;;;;;;;;;;21.79;68.83;96597.09;5096648;28;19992;-72
2022/06/27 12:33:28;;;;;;;;;;;;;;;21.90;69.27;96600.41;5096950;28;19969;-72
2022/06/27 12:35:54;;;;;;;;;;;;;;;22.10;69.87;96610.84;5096594;28;20023;-72
2022/06/27 12:38:20;;;;;;;;;;;;;;;22.26;68.10;96606.13;5096309;28;19968;-72
2022/06/27 12:40:46;;;;;;;;;;;;;;;22.38;67.93;96599.53;5097079;28;19970;-72
2022/06/27 12:43:12;;;;;;;;;;;;;;;22.38;68.19;96596.88;5096160;28;21231;-72
2022/06/27 12:45:39;;;;;;;;;;;;;;;22.33;68.49;96596.94;5096324;28;20447;-72
2022/06/27 12:48:06;;;;;;;;;;;;;;;22.22;67.51;96591.72;5096440;28;19958;-72
2022/06/27 12:50:32;;;;;;;;;;;;;;;22.18;67.93;96601.41;5096522;28;19962;-72
2022/06/27 12:52:58;;;;;;;;;;;;;;;22.19;68.29;96594.16;5096038;28;19985;-72
2022/06/27 12:55:24;;;;;;;;;;;;;;;22.09;67.98;96603.13;5096114;28;19963;-72
2022/06/27 12:57:50;;;;;;;;;;;;;;;22.03;65.74;96589.03;5096357;28;19964;-72
2022/06/27 13:00:16;;;;;;;;;;;;;;;22.00;67.31;96602.97;5096079;28;19995;-72